sensor_id;sensor_type;location;lat;lon;timestamp;P1;durP1;ratioP1;P2;durP2;ratioP2
38783;SDS011;24531;45.502;12.238;2022-12-29T00:01:49;50.78;;;32.13;;
38783;SDS011;24531;45.502;12.238;2022-12-29T00:04:15;57.85;;;36.35;;
38783;SDS011;24531;45.502;12.238;2022-12-29T00:06:41;49.53;;;34.50;;
38783;SDS011;24531;45.502;12.238;2022-12-29T00:09:07;60.75;;;36.38;;
38783;SDS011;24531;45.502;12.238;2022-12-29T00:11:33;50.40;;;31.98;;
38783;SDS011;24531;45.502;12.238;2022-12-29T00:13:59;51.95;;;32.30;;
38783;SDS011;24531;45.502;12.238;2022-12-29T00:16:43;53.38;;;32.35;;
38783;SDS011;24531;45.502;12.238;2022-12-29T00:19:10;47.92;;;29.67;;
38783;SDS011;24531;45.502;12.238;2022-12-29T00:21:56;44.65;;;27.75;;
38783;SDS011;24531;45.502;12.238;2022-12-29T00:24:41;44.58;;;28.08;;
38783;SDS011;24531;45.502;12.238;2022-12-29T00:27:26;44.47;;;26.52;;
38783;SDS011;24531;45.502;12.238;2022-12-29T00:30:11;38.80;;;25.50;;
38783;SDS011;24531;45.502;12.238;2022-12-29T00:32:57;38.83;;;25.50;;
38783;SDS011;24531;45.502;12.238;2022-12-29T00:35:51;35.75;;;25.35;;
38783;SDS011;24531;45.502;12.238;2022-12-29T00:38:20;42.97;;;27.42;;
38783;SDS011;24531;45.502;12.238;2022-12-29T00:41:04;38.80;;;25.63;;
38783;SDS011;24531;45.502;12.238;2022-12-29T00:43:48;39.20;;;25.40;;
38783;SDS011;24531;45.502;12.238;2022-12-29T00:46:38;35.00;;;25.70;;
38783;SDS011;24531;45.502;12.238;2022-12-29T00:49:06;45.22;;;27.27;;
38783;SDS011;24531;45.502;12.238;2022-12-29T00:51:51;37.72;;;25.40;;
38783;SDS011;24531;45.502;12.238;2022-12-29T00:54:18;37.65;;;25.70;;
38783;SDS011;24531;45.502;12.238;2022-12-29T00:56:48;41.13;;;26.70;;
38783;SDS011;24531;45.502;12.238;2022-12-29T00:59:14;40.05;;;26.00;;
38783;SDS011;24531;45.502;12.238;2022-12-29T01:01:40;44.70;;;25.65;;
38783;SDS011;24531;45.502;12.238;2022-12-29T01:04:06;45.83;;;26.50;;
38783;SDS011;24531;45.502;12.238;2022-12-29T01:06:33;46.50;;;27.38;;
38783;SDS011;24531;45.502;12.238;2022-12-29T01:08:59;41.92;;;25.08;;
38783;SDS011;24531;45.502;12.238;2022-12-29T01:11:44;47.75;;;27.08;;
38783;SDS011;24531;45.502;12.238;2022-12-29T01:14:09;39.42;;;25.08;;
38783;SDS011;24531;45.502;12.238;2022-12-29T01:16:35;43.63;;;26.17;;
38783;SDS011;24531;45.502;12.238;2022-12-29T01:19:01;43.45;;;27.52;;
38783;SDS011;24531;45.502;12.238;2022-12-29T01:21:27;40.47;;;25.15;;
38783;SDS011;24531;45.502;12.238;2022-12-29T01:23:53;39.10;;;25.00;;
38783;SDS011;24531;45.502;12.238;2022-12-29T01:26:18;38.63;;;24.70;;
38783;SDS011;24531;45.502;12.238;2022-12-29T01:28:44;40.88;;;25.17;;
38783;SDS011;24531;45.502;12.238;2022-12-29T01:31:11;36.17;;;24.92;;
38783;SDS011;24531;45.502;12.238;2022-12-29T01:33:38;37.38;;;25.88;;
38783;SDS011;24531;45.502;12.238;2022-12-29T01:36:06;40.80;;;25.25;;
38783;SDS011;24531;45.502;12.238;2022-12-29T01:38:34;40.20;;;24.60;;
38783;SDS011;24531;45.502;12.238;2022-12-29T01:41:01;43.60;;;26.52;;
38783;SDS011;24531;45.502;12.238;2022-12-29T01:43:47;38.95;;;26.60;;
38783;SDS011;24531;45.502;12.238;2022-12-29T01:46:33;39.63;;;26.70;;
38783;SDS011;24531;45.502;12.238;2022-12-29T01:51:45;43.22;;;27.13;;
38783;SDS011;24531;45.502;12.238;2022-12-29T01:54:19;37.95;;;25.58;;
38783;SDS011;24531;45.502;12.238;2022-12-29T01:56:51;37.00;;;25.05;;
38783;SDS011;24531;45.502;12.238;2022-12-29T01:59:21;37.47;;;25.33;;
38783;SDS011;24531;45.502;12.238;2022-12-29T02:01:50;42.50;;;26.67;;
38783;SDS011;24531;45.502;12.238;2022-12-29T02:04:16;45.53;;;26.00;;
38783;SDS011;24531;45.502;12.238;2022-12-29T02:06:45;40.55;;;26.08;;
38783;SDS011;24531;45.502;12.238;2022-12-29T02:09:14;38.22;;;24.73;;
38783;SDS011;24531;45.502;12.238;2022-12-29T02:11:40;36.72;;;25.13;;
38783;SDS011;24531;45.502;12.238;2022-12-29T02:14:12;34.72;;;24.38;;
38783;SDS011;24531;45.502;12.238;2022-12-29T02:30:04;36.95;;;24.10;;
38783;SDS011;24531;45.502;12.238;2022-12-29T02:41:15;35.50;;;23.45;;
38783;SDS011;24531;45.502;12.238;2022-12-29T02:44:11;38.15;;;24.55;;
38783;SDS011;24531;45.502;12.238;2022-12-29T02:46:43;35.80;;;25.15;;
38783;SDS011;24531;45.502;12.238;2022-12-29T02:54:19;39.63;;;25.30;;
38783;SDS011;24531;45.502;12.238;2022-12-29T02:59:48;36.38;;;24.90;;
38783;SDS011;24531;45.502;12.238;2022-12-29T03:19:02;34.85;;;23.17;;
38783;SDS011;24531;45.502;12.238;2022-12-29T03:21:37;35.88;;;23.90;;
38783;SDS011;24531;45.502;12.238;2022-12-29T03:24:24;39.15;;;24.85;;
38783;SDS011;24531;45.502;12.238;2022-12-29T03:26:54;34.22;;;23.38;;
38783;SDS011;24531;45.502;12.238;2022-12-29T03:29:23;37.88;;;25.48;;
38783;SDS011;24531;45.502;12.238;2022-12-29T03:31:50;39.17;;;25.02;;
38783;SDS011;24531;45.502;12.238;2022-12-29T03:34:18;39.45;;;25.05;;
38783;SDS011;24531;45.502;12.238;2022-12-29T03:36:53;38.88;;;26.42;;
38783;SDS011;24531;45.502;12.238;2022-12-29T03:39:26;37.83;;;25.58;;
38783;SDS011;24531;45.502;12.238;2022-12-29T03:41:57;37.78;;;25.85;;
38783;SDS011;24531;45.502;12.238;2022-12-29T03:44:33;35.00;;;24.33;;
38783;SDS011;24531;45.502;12.238;2022-12-29T03:47:01;37.65;;;24.75;;
38783;SDS011;24531;45.502;12.238;2022-12-29T03:49:27;36.95;;;24.85;;
38783;SDS011;24531;45.502;12.238;2022-12-29T03:51:53;38.42;;;25.10;;
38783;SDS011;24531;45.502;12.238;2022-12-29T03:54:18;46.90;;;28.27;;
38783;SDS011;24531;45.502;12.238;2022-12-29T03:56:44;44.53;;;27.05;;
38783;SDS011;24531;45.502;12.238;2022-12-29T03:59:09;46.92;;;28.95;;
38783;SDS011;24531;45.502;12.238;2022-12-29T04:01:35;38.40;;;25.20;;
38783;SDS011;24531;45.502;12.238;2022-12-29T04:04:01;38.20;;;25.60;;
38783;SDS011;24531;45.502;12.238;2022-12-29T04:06:26;38.70;;;25.38;;
38783;SDS011;24531;45.502;12.238;2022-12-29T04:08:52;36.90;;;23.95;;
38783;SDS011;24531;45.502;12.238;2022-12-29T04:11:18;40.33;;;25.17;;
38783;SDS011;24531;45.502;12.238;2022-12-29T04:13:43;38.05;;;24.15;;
38783;SDS011;24531;45.502;12.238;2022-12-29T04:16:09;34.92;;;23.13;;
38783;SDS011;24531;45.502;12.238;2022-12-29T04:18:34;39.67;;;24.63;;
38783;SDS011;24531;45.502;12.238;2022-12-29T04:21:00;36.60;;;24.23;;
38783;SDS011;24531;45.502;12.238;2022-12-29T04:23:27;35.42;;;23.90;;
38783;SDS011;24531;45.502;12.238;2022-12-29T04:25:54;32.53;;;22.65;;
38783;SDS011;24531;45.502;12.238;2022-12-29T04:28:20;35.20;;;23.90;;
38783;SDS011;24531;45.502;12.238;2022-12-29T04:30:46;37.55;;;23.42;;
38783;SDS011;24531;45.502;12.238;2022-12-29T04:33:12;38.75;;;24.10;;
38783;SDS011;24531;45.502;12.238;2022-12-29T04:35:38;35.50;;;23.90;;
38783;SDS011;24531;45.502;12.238;2022-12-29T04:38:03;35.03;;;22.80;;
38783;SDS011;24531;45.502;12.238;2022-12-29T04:40:29;35.95;;;23.98;;
38783;SDS011;24531;45.502;12.238;2022-12-29T04:42:55;38.10;;;24.13;;
38783;SDS011;24531;45.502;12.238;2022-12-29T04:45:20;36.50;;;24.73;;
38783;SDS011;24531;45.502;12.238;2022-12-29T04:47:46;33.72;;;23.08;;
38783;SDS011;24531;45.502;12.238;2022-12-29T04:50:12;35.25;;;22.70;;
38783;SDS011;24531;45.502;12.238;2022-12-29T04:52:37;36.60;;;24.20;;
38783;SDS011;24531;45.502;12.238;2022-12-29T04:55:03;32.90;;;22.15;;
38783;SDS011;24531;45.502;12.238;2022-12-29T04:57:30;35.55;;;23.02;;
38783;SDS011;24531;45.502;12.238;2022-12-29T04:59:55;35.35;;;24.17;;
38783;SDS011;24531;45.502;12.238;2022-12-29T05:02:21;35.35;;;23.55;;
38783;SDS011;24531;45.502;12.238;2022-12-29T05:04:47;32.53;;;23.40;;
38783;SDS011;24531;45.502;12.238;2022-12-29T05:07:13;37.15;;;24.33;;
38783;SDS011;24531;45.502;12.238;2022-12-29T05:09:38;32.85;;;23.30;;
38783;SDS011;24531;45.502;12.238;2022-12-29T05:12:04;34.70;;;22.67;;
38783;SDS011;24531;45.502;12.238;2022-12-29T05:14:30;36.22;;;23.73;;
38783;SDS011;24531;45.502;12.238;2022-12-29T05:16:55;35.33;;;22.67;;
38783;SDS011;24531;45.502;12.238;2022-12-29T05:19:21;28.90;;;22.60;;
38783;SDS011;24531;45.502;12.238;2022-12-29T05:21:47;37.50;;;24.30;;
38783;SDS011;24531;45.502;12.238;2022-12-29T05:24:12;33.03;;;22.95;;
38783;SDS011;24531;45.502;12.238;2022-12-29T05:26:38;34.45;;;22.40;;
38783;SDS011;24531;45.502;12.238;2022-12-29T05:29:04;31.67;;;21.65;;
38783;SDS011;24531;45.502;12.238;2022-12-29T05:31:29;29.88;;;21.48;;
38783;SDS011;24531;45.502;12.238;2022-12-29T05:33:55;31.90;;;22.10;;
38783;SDS011;24531;45.502;12.238;2022-12-29T05:36:21;33.15;;;22.05;;
38783;SDS011;24531;45.502;12.238;2022-12-29T05:38:46;34.58;;;22.60;;
38783;SDS011;24531;45.502;12.238;2022-12-29T05:41:12;29.90;;;19.75;;
38783;SDS011;24531;45.502;12.238;2022-12-29T05:43:37;30.45;;;19.95;;
38783;SDS011;24531;45.502;12.238;2022-12-29T05:46:03;29.27;;;20.45;;
38783;SDS011;24531;45.502;12.238;2022-12-29T05:48:30;28.38;;;20.85;;
38783;SDS011;24531;45.502;12.238;2022-12-29T05:50:55;33.65;;;21.58;;
38783;SDS011;24531;45.502;12.238;2022-12-29T05:53:21;30.27;;;21.17;;
38783;SDS011;24531;45.502;12.238;2022-12-29T05:55:48;31.73;;;22.95;;
38783;SDS011;24531;45.502;12.238;2022-12-29T05:58:14;32.90;;;21.08;;
38783;SDS011;24531;45.502;12.238;2022-12-29T06:00:40;33.55;;;21.67;;
38783;SDS011;24531;45.502;12.238;2022-12-29T06:03:06;34.72;;;22.27;;
38783;SDS011;24531;45.502;12.238;2022-12-29T06:05:32;31.75;;;21.13;;
38783;SDS011;24531;45.502;12.238;2022-12-29T06:07:57;32.22;;;22.65;;
38783;SDS011;24531;45.502;12.238;2022-12-29T06:10:23;32.90;;;20.85;;
38783;SDS011;24531;45.502;12.238;2022-12-29T06:12:48;29.20;;;20.88;;
38783;SDS011;24531;45.502;12.238;2022-12-29T06:15:14;36.85;;;22.48;;
38783;SDS011;24531;45.502;12.238;2022-12-29T06:17:39;31.17;;;20.33;;
38783;SDS011;24531;45.502;12.238;2022-12-29T06:20:06;29.05;;;20.50;;
38783;SDS011;24531;45.502;12.238;2022-12-29T06:22:32;34.65;;;22.15;;
38783;SDS011;24531;45.502;12.238;2022-12-29T06:24:58;33.00;;;20.63;;
38783;SDS011;24531;45.502;12.238;2022-12-29T06:27:24;30.27;;;20.00;;
38783;SDS011;24531;45.502;12.238;2022-12-29T06:29:49;34.35;;;23.27;;
38783;SDS011;24531;45.502;12.238;2022-12-29T06:32:15;35.35;;;22.63;;
38783;SDS011;24531;45.502;12.238;2022-12-29T06:34:41;34.92;;;20.98;;
38783;SDS011;24531;45.502;12.238;2022-12-29T06:37:06;33.55;;;21.42;;
38783;SDS011;24531;45.502;12.238;2022-12-29T06:39:32;30.95;;;21.00;;
38783;SDS011;24531;45.502;12.238;2022-12-29T06:41:57;31.85;;;21.02;;
38783;SDS011;24531;45.502;12.238;2022-12-29T06:44:23;33.80;;;21.73;;
38783;SDS011;24531;45.502;12.238;2022-12-29T06:46:49;37.38;;;23.38;;
38783;SDS011;24531;45.502;12.238;2022-12-29T06:49:15;31.42;;;21.02;;
38783;SDS011;24531;45.502;12.238;2022-12-29T06:51:41;29.98;;;20.13;;
38783;SDS011;24531;45.502;12.238;2022-12-29T06:54:07;33.10;;;21.10;;
38783;SDS011;24531;45.502;12.238;2022-12-29T06:56:32;29.60;;;20.25;;
38783;SDS011;24531;45.502;12.238;2022-12-29T06:58:58;34.92;;;21.95;;
38783;SDS011;24531;45.502;12.238;2022-12-29T07:01:27;29.98;;;20.25;;
38783;SDS011;24531;45.502;12.238;2022-12-29T07:03:52;28.83;;;20.23;;
38783;SDS011;24531;45.502;12.238;2022-12-29T07:06:18;30.17;;;19.90;;
38783;SDS011;24531;45.502;12.238;2022-12-29T07:08:43;34.15;;;20.73;;
38783;SDS011;24531;45.502;12.238;2022-12-29T07:11:09;27.58;;;18.48;;
38783;SDS011;24531;45.502;12.238;2022-12-29T07:13:35;31.35;;;20.02;;
38783;SDS011;24531;45.502;12.238;2022-12-29T07:16:04;28.17;;;19.45;;
38783;SDS011;24531;45.502;12.238;2022-12-29T07:18:31;29.80;;;20.88;;
38783;SDS011;24531;45.502;12.238;2022-12-29T07:20:57;30.95;;;20.08;;
38783;SDS011;24531;45.502;12.238;2022-12-29T07:23:22;28.27;;;19.95;;
38783;SDS011;24531;45.502;12.238;2022-12-29T07:25:48;29.20;;;19.88;;
38783;SDS011;24531;45.502;12.238;2022-12-29T07:28:14;28.08;;;19.95;;
38783;SDS011;24531;45.502;12.238;2022-12-29T07:30:39;29.00;;;20.65;;
38783;SDS011;24531;45.502;12.238;2022-12-29T07:33:05;32.72;;;20.35;;
38783;SDS011;24531;45.502;12.238;2022-12-29T07:35:30;33.50;;;20.98;;
38783;SDS011;24531;45.502;12.238;2022-12-29T07:37:58;30.80;;;19.90;;
38783;SDS011;24531;45.502;12.238;2022-12-29T07:40:23;29.73;;;21.40;;
38783;SDS011;24531;45.502;12.238;2022-12-29T07:42:49;30.38;;;20.15;;
38783;SDS011;24531;45.502;12.238;2022-12-29T07:45:14;31.20;;;19.83;;
38783;SDS011;24531;45.502;12.238;2022-12-29T07:47:40;29.27;;;20.35;;
38783;SDS011;24531;45.502;12.238;2022-12-29T07:50:06;27.90;;;20.75;;
38783;SDS011;24531;45.502;12.238;2022-12-29T07:52:31;30.63;;;19.65;;
38783;SDS011;24531;45.502;12.238;2022-12-29T07:54:57;32.40;;;20.65;;
38783;SDS011;24531;45.502;12.238;2022-12-29T07:57:23;29.75;;;19.90;;
38783;SDS011;24531;45.502;12.238;2022-12-29T07:59:48;28.15;;;19.75;;
38783;SDS011;24531;45.502;12.238;2022-12-29T08:02:14;30.95;;;19.08;;
38783;SDS011;24531;45.502;12.238;2022-12-29T08:04:39;31.05;;;20.17;;
38783;SDS011;24531;45.502;12.238;2022-12-29T08:07:05;28.17;;;19.60;;
38783;SDS011;24531;45.502;12.238;2022-12-29T08:09:31;28.83;;;19.48;;
38783;SDS011;24531;45.502;12.238;2022-12-29T08:11:56;29.55;;;20.33;;
38783;SDS011;24531;45.502;12.238;2022-12-29T08:14:22;27.70;;;19.42;;
38783;SDS011;24531;45.502;12.238;2022-12-29T08:16:48;27.77;;;20.13;;
38783;SDS011;24531;45.502;12.238;2022-12-29T08:19:13;32.05;;;20.40;;
38783;SDS011;24531;45.502;12.238;2022-12-29T08:21:39;30.42;;;19.67;;
38783;SDS011;24531;45.502;12.238;2022-12-29T08:24:05;24.58;;;19.17;;
38783;SDS011;24531;45.502;12.238;2022-12-29T08:26:31;33.88;;;20.75;;
38783;SDS011;24531;45.502;12.238;2022-12-29T08:28:57;26.27;;;18.95;;
38783;SDS011;24531;45.502;12.238;2022-12-29T08:31:23;25.42;;;18.23;;
38783;SDS011;24531;45.502;12.238;2022-12-29T08:33:49;26.25;;;18.48;;
38783;SDS011;24531;45.502;12.238;2022-12-29T08:36:15;27.13;;;19.58;;
38783;SDS011;24531;45.502;12.238;2022-12-29T08:38:41;26.48;;;19.38;;
38783;SDS011;24531;45.502;12.238;2022-12-29T08:41:06;29.65;;;19.83;;
38783;SDS011;24531;45.502;12.238;2022-12-29T08:43:32;28.58;;;20.15;;
38783;SDS011;24531;45.502;12.238;2022-12-29T08:45:58;28.05;;;20.65;;
38783;SDS011;24531;45.502;12.238;2022-12-29T08:48:23;26.38;;;18.80;;
38783;SDS011;24531;45.502;12.238;2022-12-29T08:50:52;26.70;;;18.33;;
38783;SDS011;24531;45.502;12.238;2022-12-29T08:53:18;26.40;;;19.52;;
38783;SDS011;24531;45.502;12.238;2022-12-29T08:55:45;27.80;;;19.05;;
38783;SDS011;24531;45.502;12.238;2022-12-29T08:58:20;27.33;;;19.75;;
38783;SDS011;24531;45.502;12.238;2022-12-29T09:00:46;28.45;;;19.15;;
38783;SDS011;24531;45.502;12.238;2022-12-29T09:03:14;28.75;;;20.17;;
38783;SDS011;24531;45.502;12.238;2022-12-29T09:05:39;28.33;;;19.90;;
38783;SDS011;24531;45.502;12.238;2022-12-29T09:08:05;25.25;;;18.50;;
38783;SDS011;24531;45.502;12.238;2022-12-29T09:10:31;32.10;;;19.88;;
38783;SDS011;24531;45.502;12.238;2022-12-29T09:12:56;29.67;;;19.98;;
38783;SDS011;24531;45.502;12.238;2022-12-29T09:15:22;29.85;;;20.08;;
38783;SDS011;24531;45.502;12.238;2022-12-29T09:17:48;26.40;;;18.67;;
38783;SDS011;24531;45.502;12.238;2022-12-29T09:20:17;26.73;;;19.35;;
38783;SDS011;24531;45.502;12.238;2022-12-29T09:22:44;34.22;;;19.63;;
38783;SDS011;24531;45.502;12.238;2022-12-29T09:25:11;27.50;;;20.50;;
38783;SDS011;24531;45.502;12.238;2022-12-29T09:27:54;25.73;;;17.63;;
38783;SDS011;24531;45.502;12.238;2022-12-29T09:30:20;30.48;;;19.88;;
38783;SDS011;24531;45.502;12.238;2022-12-29T09:32:47;27.85;;;19.02;;
38783;SDS011;24531;45.502;12.238;2022-12-29T09:35:14;27.20;;;20.02;;
38783;SDS011;24531;45.502;12.238;2022-12-29T09:37:41;29.15;;;20.17;;
38783;SDS011;24531;45.502;12.238;2022-12-29T09:40:15;29.23;;;19.05;;
38783;SDS011;24531;45.502;12.238;2022-12-29T09:45:32;26.52;;;18.63;;
38783;SDS011;24531;45.502;12.238;2022-12-29T09:48:23;26.77;;;19.80;;
38783;SDS011;24531;45.502;12.238;2022-12-29T09:50:57;30.38;;;20.45;;
38783;SDS011;24531;45.502;12.238;2022-12-29T09:53:27;29.10;;;19.88;;
38783;SDS011;24531;45.502;12.238;2022-12-29T09:56:00;26.55;;;20.00;;
38783;SDS011;24531;45.502;12.238;2022-12-29T09:58:30;28.35;;;20.48;;
38783;SDS011;24531;45.502;12.238;2022-12-29T10:03:49;27.92;;;19.27;;
38783;SDS011;24531;45.502;12.238;2022-12-29T10:06:22;27.55;;;20.05;;
38783;SDS011;24531;45.502;12.238;2022-12-29T10:14:26;26.65;;;18.33;;
38783;SDS011;24531;45.502;12.238;2022-12-29T10:17:01;23.33;;;18.17;;
38783;SDS011;24531;45.502;12.238;2022-12-29T10:22:24;28.17;;;19.90;;
38783;SDS011;24531;45.502;12.238;2022-12-29T10:25:20;38.88;;;23.35;;
38783;SDS011;24531;45.502;12.238;2022-12-29T10:27:50;30.23;;;20.55;;
38783;SDS011;24531;45.502;12.238;2022-12-29T10:30:18;34.28;;;21.00;;
38783;SDS011;24531;45.502;12.238;2022-12-29T10:32:46;27.00;;;20.33;;
38783;SDS011;24531;45.502;12.238;2022-12-29T10:35:18;30.10;;;21.95;;
38783;SDS011;24531;45.502;12.238;2022-12-29T10:38:01;30.65;;;21.25;;
38783;SDS011;24531;45.502;12.238;2022-12-29T10:40:36;31.20;;;20.02;;
38783;SDS011;24531;45.502;12.238;2022-12-29T10:46:38;30.33;;;21.10;;
38783;SDS011;24531;45.502;12.238;2022-12-29T10:48:55;32.08;;;21.40;;
38783;SDS011;24531;45.502;12.238;2022-12-29T10:51:26;31.75;;;21.95;;
38783;SDS011;24531;45.502;12.238;2022-12-29T10:54:01;29.83;;;20.90;;
38783;SDS011;24531;45.502;12.238;2022-12-29T10:56:33;31.15;;;21.00;;
38783;SDS011;24531;45.502;12.238;2022-12-29T11:07:09;32.05;;;21.20;;
38783;SDS011;24531;45.502;12.238;2022-12-29T11:09:36;31.08;;;21.85;;
38783;SDS011;24531;45.502;12.238;2022-12-29T11:17:44;30.77;;;20.67;;
38783;SDS011;24531;45.502;12.238;2022-12-29T11:20:29;39.08;;;22.38;;
38783;SDS011;24531;45.502;12.238;2022-12-29T11:22:57;36.53;;;22.10;;
38783;SDS011;24531;45.502;12.238;2022-12-29T11:25:24;33.25;;;22.52;;
38783;SDS011;24531;45.502;12.238;2022-12-29T11:30:39;31.38;;;21.80;;
38783;SDS011;24531;45.502;12.238;2022-12-29T11:33:05;35.80;;;23.40;;
38783;SDS011;24531;45.502;12.238;2022-12-29T11:38:01;34.97;;;23.38;;
38783;SDS011;24531;45.502;12.238;2022-12-29T11:40:28;31.73;;;22.85;;
38783;SDS011;24531;45.502;12.238;2022-12-29T11:42:55;32.08;;;22.40;;
38783;SDS011;24531;45.502;12.238;2022-12-29T11:45:31;31.50;;;22.10;;
38783;SDS011;24531;45.502;12.238;2022-12-29T11:50:31;35.90;;;25.13;;
38783;SDS011;24531;45.502;12.238;2022-12-29T11:53:02;32.88;;;23.55;;
38783;SDS011;24531;45.502;12.238;2022-12-29T11:55:51;33.42;;;23.83;;
38783;SDS011;24531;45.502;12.238;2022-12-29T11:58:28;34.80;;;23.95;;
38783;SDS011;24531;45.502;12.238;2022-12-29T12:00:57;34.67;;;23.45;;
38783;SDS011;24531;45.502;12.238;2022-12-29T12:03:28;34.88;;;25.40;;
38783;SDS011;24531;45.502;12.238;2022-12-29T12:06:03;33.40;;;22.80;;
38783;SDS011;24531;45.502;12.238;2022-12-29T12:08:36;34.03;;;22.90;;
38783;SDS011;24531;45.502;12.238;2022-12-29T12:14:00;35.72;;;23.33;;
38783;SDS011;24531;45.502;12.238;2022-12-29T12:16:28;35.03;;;22.98;;
38783;SDS011;24531;45.502;12.238;2022-12-29T12:21:55;31.83;;;23.17;;
38783;SDS011;24531;45.502;12.238;2022-12-29T12:27:18;36.10;;;24.27;;
38783;SDS011;24531;45.502;12.238;2022-12-29T12:30:02;35.45;;;24.83;;
38783;SDS011;24531;45.502;12.238;2022-12-29T12:32:41;36.05;;;24.77;;
38783;SDS011;24531;45.502;12.238;2022-12-29T12:35:15;40.10;;;25.30;;
38783;SDS011;24531;45.502;12.238;2022-12-29T13:05:05;39.50;;;26.92;;
38783;SDS011;24531;45.502;12.238;2022-12-29T13:07:48;37.17;;;27.02;;
38783;SDS011;24531;45.502;12.238;2022-12-29T13:18:25;40.33;;;26.80;;
38783;SDS011;24531;45.502;12.238;2022-12-29T13:21:08;39.65;;;26.25;;
38783;SDS011;24531;45.502;12.238;2022-12-29T13:23:54;39.17;;;25.60;;
38783;SDS011;24531;45.502;12.238;2022-12-29T13:26:32;39.03;;;25.48;;
38783;SDS011;24531;45.502;12.238;2022-12-29T13:37:31;39.22;;;24.23;;
38783;SDS011;24531;45.502;12.238;2022-12-29T13:40:02;37.55;;;25.70;;
38783;SDS011;24531;45.502;12.238;2022-12-29T13:42:36;37.20;;;25.17;;
38783;SDS011;24531;45.502;12.238;2022-12-29T13:45:06;36.78;;;26.02;;
38783;SDS011;24531;45.502;12.238;2022-12-29T13:47:49;36.92;;;26.35;;
38783;SDS011;24531;45.502;12.238;2022-12-29T13:50:26;36.30;;;25.70;;
38783;SDS011;24531;45.502;12.238;2022-12-29T13:55:52;38.88;;;24.50;;
38783;SDS011;24531;45.502;12.238;2022-12-29T14:01:28;34.63;;;23.88;;
38783;SDS011;24531;45.502;12.238;2022-12-29T14:04:02;36.20;;;25.08;;
38783;SDS011;24531;45.502;12.238;2022-12-29T14:06:35;39.88;;;25.77;;
38783;SDS011;24531;45.502;12.238;2022-12-29T14:09:05;37.47;;;25.25;;
38783;SDS011;24531;45.502;12.238;2022-12-29T14:11:51;40.78;;;25.90;;
38783;SDS011;24531;45.502;12.238;2022-12-29T14:14:25;36.28;;;24.83;;
38783;SDS011;24531;45.502;12.238;2022-12-29T14:16:57;37.90;;;25.63;;
38783;SDS011;24531;45.502;12.238;2022-12-29T14:19:39;37.27;;;26.80;;
38783;SDS011;24531;45.502;12.238;2022-12-29T14:22:09;36.03;;;27.17;;
38783;SDS011;24531;45.502;12.238;2022-12-29T14:24:38;40.67;;;27.10;;
38783;SDS011;24531;45.502;12.238;2022-12-29T14:32:09;38.40;;;28.75;;
38783;SDS011;24531;45.502;12.238;2022-12-29T14:34:55;41.42;;;28.00;;
38783;SDS011;24531;45.502;12.238;2022-12-29T14:40:52;36.08;;;25.33;;
38783;SDS011;24531;45.502;12.238;2022-12-29T14:42:51;40.42;;;26.67;;
38783;SDS011;24531;45.502;12.238;2022-12-29T14:45:30;38.72;;;27.92;;
38783;SDS011;24531;45.502;12.238;2022-12-29T14:48:02;43.83;;;28.02;;
38783;SDS011;24531;45.502;12.238;2022-12-29T14:50:52;42.40;;;28.10;;
38783;SDS011;24531;45.502;12.238;2022-12-29T14:56:17;43.28;;;30.13;;
38783;SDS011;24531;45.502;12.238;2022-12-29T15:01:26;41.13;;;28.55;;
38783;SDS011;24531;45.502;12.238;2022-12-29T15:03:59;43.08;;;28.80;;
38783;SDS011;24531;45.502;12.238;2022-12-29T15:06:30;40.22;;;27.88;;
38783;SDS011;24531;45.502;12.238;2022-12-29T15:11:56;38.10;;;28.08;;
38783;SDS011;24531;45.502;12.238;2022-12-29T15:14:27;43.92;;;29.58;;
38783;SDS011;24531;45.502;12.238;2022-12-29T15:16:53;53.58;;;36.72;;
38783;SDS011;24531;45.502;12.238;2022-12-29T15:19:22;44.53;;;33.05;;
38783;SDS011;24531;45.502;12.238;2022-12-29T15:21:49;46.42;;;33.15;;
38783;SDS011;24531;45.502;12.238;2022-12-29T15:24:15;47.72;;;33.17;;
38783;SDS011;24531;45.502;12.238;2022-12-29T15:26:45;54.85;;;38.38;;
38783;SDS011;24531;45.502;12.238;2022-12-29T15:32:02;44.42;;;33.13;;
38783;SDS011;24531;45.502;12.238;2022-12-29T15:34:42;46.90;;;31.30;;
38783;SDS011;24531;45.502;12.238;2022-12-29T15:37:15;43.45;;;29.83;;
38783;SDS011;24531;45.502;12.238;2022-12-29T15:39:47;45.38;;;31.02;;
38783;SDS011;24531;45.502;12.238;2022-12-29T15:44:57;41.90;;;29.15;;
38783;SDS011;24531;45.502;12.238;2022-12-29T15:47:24;42.70;;;29.00;;
38783;SDS011;24531;45.502;12.238;2022-12-29T15:49:53;36.58;;;28.10;;
38783;SDS011;24531;45.502;12.238;2022-12-29T15:52:28;37.88;;;28.83;;
38783;SDS011;24531;45.502;12.238;2022-12-29T15:54:56;43.03;;;30.77;;
38783;SDS011;24531;45.502;12.238;2022-12-29T15:57:25;44.10;;;32.35;;
38783;SDS011;24531;45.502;12.238;2022-12-29T15:59:52;43.53;;;30.45;;
38783;SDS011;24531;45.502;12.238;2022-12-29T16:02:19;45.30;;;31.10;;
38783;SDS011;24531;45.502;12.238;2022-12-29T16:04:47;42.10;;;30.08;;
38783;SDS011;24531;45.502;12.238;2022-12-29T16:07:32;40.22;;;29.30;;
38783;SDS011;24531;45.502;12.238;2022-12-29T16:10:01;40.22;;;29.10;;
38783;SDS011;24531;45.502;12.238;2022-12-29T16:12:34;47.63;;;32.33;;
38783;SDS011;24531;45.502;12.238;2022-12-29T16:15:03;47.47;;;32.20;;
38783;SDS011;24531;45.502;12.238;2022-12-29T16:17:31;44.38;;;32.83;;
38783;SDS011;24531;45.502;12.238;2022-12-29T16:22:59;45.47;;;32.75;;
38783;SDS011;24531;45.502;12.238;2022-12-29T16:25:29;50.25;;;34.53;;
38783;SDS011;24531;45.502;12.238;2022-12-29T16:27:59;51.83;;;35.67;;
38783;SDS011;24531;45.502;12.238;2022-12-29T16:30:28;53.47;;;36.13;;
38783;SDS011;24531;45.502;12.238;2022-12-29T16:32:56;49.92;;;34.13;;
38783;SDS011;24531;45.502;12.238;2022-12-29T16:35:25;44.63;;;32.72;;
38783;SDS011;24531;45.502;12.238;2022-12-29T16:43:50;49.15;;;33.90;;
38783;SDS011;24531;45.502;12.238;2022-12-29T16:46:38;46.92;;;31.85;;
38783;SDS011;24531;45.502;12.238;2022-12-29T16:49:42;49.50;;;34.10;;
38783;SDS011;24531;45.502;12.238;2022-12-29T16:52:12;50.47;;;33.53;;
38783;SDS011;24531;45.502;12.238;2022-12-29T16:54:44;46.15;;;32.30;;
38783;SDS011;24531;45.502;12.238;2022-12-29T16:57:21;48.78;;;32.20;;
38783;SDS011;24531;45.502;12.238;2022-12-29T16:59:52;52.65;;;35.47;;
38783;SDS011;24531;45.502;12.238;2022-12-29T17:02:21;49.03;;;33.92;;
38783;SDS011;24531;45.502;12.238;2022-12-29T17:04:50;53.05;;;35.08;;
38783;SDS011;24531;45.502;12.238;2022-12-29T17:07:19;50.33;;;36.30;;
38783;SDS011;24531;45.502;12.238;2022-12-29T17:09:46;51.78;;;34.67;;
38783;SDS011;24531;45.502;12.238;2022-12-29T17:12:17;49.35;;;34.67;;
38783;SDS011;24531;45.502;12.238;2022-12-29T17:14:48;47.67;;;34.83;;
38783;SDS011;24531;45.502;12.238;2022-12-29T17:17:41;51.05;;;35.72;;
38783;SDS011;24531;45.502;12.238;2022-12-29T17:20:22;58.03;;;37.65;;
38783;SDS011;24531;45.502;12.238;2022-12-29T17:22:50;52.92;;;35.28;;